PWSweather.com
Personal Weather Stations
Station Observations
KOHAVON11
Long Road Station, Avon, OH 44011

Long Road StationAvon, OH 44011

Lat: 41.437, Lon: -82.0477

Elevation: 686

Station Type: Davis Vantage Pro2

http://www.avon-weather.com

High Low Average
Temperature 59.3°F15.2°C 50.0°F10.0°C 54.9°F12.7°C
Dew Point 54.5°F12.5°C 43.0°F6.1°C 49.2°F9.6°C
Winds 26.0 mph 41.8 kmh Calm Calm 9.0 mph S14.5 kmh S
Wind Gusts 32.0 mph51.5 kmh -- 18.0 mph29.0 kmh
Humidity 89% 70% 82%
Pressure 30.03 in1016.9 mb 29.75 in1007.5 mb -
Precipitation 0.25 in6.4 mm - -
Hour Temp Dew Point Humidity Winds Wind Gusts Pressure Precip Precip Rate Daily Precip Total
12:02 AM 49.8°F9.9°C 43.1°F6.2°C 78% 8.0 mph S12.9 kmh S 8.0 mph12.9 kmh 30.02 in1016.6 mb 0.00 in0.0 mm 0.00 in0.0 mm 0.00 in0.0 mm
12:07 AM 49.9°F9.9°C 42.9°F6.1°C 77% Calm Calm 8.0 mph12.9 kmh 30.02 in1016.6 mb 0.00 in0.0 mm 0.00 in0.0 mm 0.00 in0.0 mm
12:12 AM 49.9°F9.9°C 42.9°F6.1°C 77% 4.0 mph S6.4 kmh S 10.0 mph16.1 kmh 30.02 in1016.6 mb 0.00 in0.0 mm 0.00 in0.0 mm 0.00 in0.0 mm
12:17 AM 50.0°F10.0°C 43.0°F6.1°C 77% 1.0 mph SSE1.6 kmh SSE 10.0 mph16.1 kmh 30.02 in1016.6 mb 0.00 in0.0 mm 0.00 in0.0 mm 0.00 in0.0 mm
12:22 AM 50.0°F10.0°C 43.0°F6.1°C 77% 4.0 mph S6.4 kmh S 6.0 mph9.7 kmh 30.02 in1016.6 mb 0.00 in0.0 mm 0.00 in0.0 mm 0.00 in0.0 mm
12:27 AM 50.0°F10.0°C 43.0°F6.1°C 77% 6.0 mph S9.7 kmh S 12.0 mph19.3 kmh 30.02 in1016.6 mb 0.00 in0.0 mm 0.00 in0.0 mm 0.00 in0.0 mm
12:32 AM 50.1°F10.1°C 43.1°F6.2°C 77% 8.0 mph S12.9 kmh S 12.0 mph19.3 kmh 30.02 in1016.6 mb 0.00 in0.0 mm 0.00 in0.0 mm 0.00 in0.0 mm
12:37 AM 50.2°F10.1°C 43.2°F6.2°C 77% Calm Calm 12.0 mph19.3 kmh 30.01 in1016.3 mb 0.00 in0.0 mm 0.00 in0.0 mm 0.00 in0.0 mm
12:42 AM 50.2°F10.1°C 43.2°F6.2°C 77% 1.0 mph S1.6 kmh S 12.0 mph19.3 kmh 30.01 in1016.3 mb 0.00 in0.0 mm 0.00 in0.0 mm 0.00 in0.0 mm
12:47 AM 50.2°F10.1°C 43.2°F6.2°C 77% 7.0 mph S11.3 kmh S 10.0 mph16.1 kmh 30.01 in1016.3 mb 0.00 in0.0 mm 0.00 in0.0 mm 0.00 in0.0 mm
12:52 AM 50.1°F10.1°C 43.1°F6.2°C 77% 1.0 mph SSW1.6 kmh SSW 10.0 mph16.1 kmh 30.01 in1016.3 mb 0.00 in0.0 mm 0.00 in0.0 mm 0.00 in0.0 mm
12:57 AM 50.1°F10.1°C 43.1°F6.2°C 77% 3.0 mph S4.8 kmh S 15.0 mph24.1 kmh 30.01 in1016.3 mb 0.00 in0.0 mm 0.00 in0.0 mm 0.00 in0.0 mm
01:02 AM 50.1°F10.1°C 43.1°F6.2°C 77% 1.0 mph S1.6 kmh S 15.0 mph24.1 kmh 30.00 in1015.9 mb 0.00 in0.0 mm 0.00 in0.0 mm 0.00 in0.0 mm
01:07 AM 50.0°F10.0°C 43.0°F6.1°C 77% Calm Calm 2.0 mph3.2 kmh 30.00 in1015.9 mb 0.00 in0.0 mm 0.00 in0.0 mm 0.00 in0.0 mm
01:12 AM 50.0°F10.0°C 43.3°F6.3°C 78% 3.0 mph SE4.8 kmh SE 11.0 mph17.7 kmh 30.00 in1015.9 mb 0.00 in0.0 mm 0.00 in0.0 mm 0.00 in0.0 mm
01:17 AM 50.1°F10.1°C 43.4°F6.3°C 78% 2.0 mph SE3.2 kmh SE 11.0 mph17.7 kmh 30.00 in1015.9 mb 0.00 in0.0 mm 0.00 in0.0 mm 0.00 in0.0 mm
01:22 AM 50.2°F10.1°C 43.5°F6.4°C 78% 13.0 mph S20.9 kmh S 13.0 mph20.9 kmh 30.00 in1015.9 mb 0.00 in0.0 mm 0.00 in0.0 mm 0.00 in0.0 mm
01:27 AM 50.4°F10.2°C 43.7°F6.5°C 78% 7.0 mph S11.3 kmh S 13.0 mph20.9 kmh 30.00 in1015.9 mb 0.00 in0.0 mm 0.00 in0.0 mm 0.00 in0.0 mm
01:32 AM 50.6°F10.3°C 43.9°F6.6°C 78% 4.0 mph S6.4 kmh S 13.0 mph20.9 kmh 30.00 in1015.9 mb 0.00 in0.0 mm 0.00 in0.0 mm 0.00 in0.0 mm
01:37 AM 50.7°F10.4°C 44.0°F6.7°C 78% 7.0 mph SSW11.3 kmh SSW 13.0 mph20.9 kmh 30.00 in1015.9 mb 0.00 in0.0 mm 0.00 in0.0 mm 0.00 in0.0 mm
01:42 AM 50.8°F10.4°C 43.7°F6.5°C 77% 11.0 mph S17.7 kmh S 18.0 mph29.0 kmh 30.00 in1015.9 mb 0.00 in0.0 mm 0.00 in0.0 mm 0.00 in0.0 mm
01:47 AM 50.9°F10.5°C 43.8°F6.6°C 77% 5.0 mph S8.0 kmh S 18.0 mph29.0 kmh 30.00 in1015.9 mb 0.00 in0.0 mm 0.00 in0.0 mm 0.00 in0.0 mm
01:52 AM 51.1°F10.6°C 44.0°F6.7°C 77% 5.0 mph SW8.0 kmh SW 18.0 mph29.0 kmh 29.99 in1015.6 mb 0.00 in0.0 mm 0.00 in0.0 mm 0.00 in0.0 mm
01:57 AM 51.0°F10.6°C 43.6°F6.4°C 76% 16.0 mph S25.7 kmh S 18.0 mph29.0 kmh 30.00 in1015.9 mb 0.00 in0.0 mm 0.00 in0.0 mm 0.00 in0.0 mm
02:02 AM 51.1°F10.6°C 44.0°F6.7°C 77% 8.0 mph S12.9 kmh S 19.0 mph30.6 kmh 30.00 in1015.9 mb 0.00 in0.0 mm 0.00 in0.0 mm 0.00 in0.0 mm
02:07 AM 51.1°F10.6°C 44.0°F6.7°C 77% 9.0 mph SSW14.5 kmh SSW 19.0 mph30.6 kmh 30.00 in1015.9 mb 0.00 in0.0 mm 0.00 in0.0 mm 0.00 in0.0 mm
02:12 AM 51.3°F10.7°C 44.2°F6.8°C 77% 9.0 mph S14.5 kmh S 19.0 mph30.6 kmh 30.00 in1015.9 mb 0.00 in0.0 mm 0.00 in0.0 mm 0.00 in0.0 mm
02:17 AM 51.6°F10.9°C 44.5°F6.9°C 77% 8.0 mph SE12.9 kmh SE 19.0 mph30.6 kmh 30.00 in1015.9 mb 0.00 in0.0 mm 0.00 in0.0 mm 0.00 in0.0 mm
02:22 AM 51.7°F10.9°C 44.3°F6.8°C 76% 6.0 mph SSE9.7 kmh SSE 17.0 mph27.4 kmh 30.00 in1015.9 mb 0.00 in0.0 mm 0.00 in0.0 mm 0.00 in0.0 mm
02:27 AM 51.7°F10.9°C 44.3°F6.8°C 76% 4.0 mph S6.4 kmh S 17.0 mph27.4 kmh 30.00 in1015.9 mb 0.00 in0.0 mm 0.00 in0.0 mm 0.00 in0.0 mm
02:32 AM 51.8°F11.0°C 44.4°F6.9°C 76% 11.0 mph S17.7 kmh S 16.0 mph25.7 kmh 30.00 in1015.9 mb 0.00 in0.0 mm 0.00 in0.0 mm 0.00 in0.0 mm
02:37 AM 52.0°F11.1°C 44.6°F7.0°C 76% 15.0 mph S24.1 kmh S 18.0 mph29.0 kmh 30.00 in1015.9 mb 0.00 in0.0 mm 0.00 in0.0 mm 0.00 in0.0 mm
02:42 AM 52.2°F11.2°C 44.7°F7.1°C 76% 16.0 mph S25.7 kmh S 18.0 mph29.0 kmh 30.00 in1015.9 mb 0.00 in0.0 mm 0.00 in0.0 mm 0.00 in0.0 mm
02:47 AM 52.5°F11.4°C 45.0°F7.2°C 76% 9.0 mph S14.5 kmh S 18.0 mph29.0 kmh 29.99 in1015.6 mb 0.00 in0.0 mm 0.00 in0.0 mm 0.00 in0.0 mm
02:52 AM 52.6°F11.4°C 44.8°F7.1°C 75% 17.0 mph S27.4 kmh S 18.0 mph29.0 kmh 29.99 in1015.6 mb 0.00 in0.0 mm 0.00 in0.0 mm 0.00 in0.0 mm
02:57 AM 52.9°F11.6°C 45.1°F7.3°C 75% 13.0 mph S20.9 kmh S 22.0 mph35.4 kmh 30.00 in1015.9 mb 0.00 in0.0 mm 0.00 in0.0 mm 0.00 in0.0 mm
03:02 AM 53.0°F11.7°C 44.8°F7.1°C 74% 5.0 mph S8.0 kmh S 22.0 mph35.4 kmh 30.00 in1015.9 mb 0.00 in0.0 mm 0.00 in0.0 mm 0.00 in0.0 mm
03:07 AM 53.1°F11.7°C 44.9°F7.2°C 74% 6.0 mph S9.7 kmh S 22.0 mph35.4 kmh 30.00 in1015.9 mb 0.00 in0.0 mm 0.00 in0.0 mm 0.00 in0.0 mm
03:12 AM 53.1°F11.7°C 44.9°F7.2°C 74% 9.0 mph S14.5 kmh S 22.0 mph35.4 kmh 30.00 in1015.9 mb 0.00 in0.0 mm 0.00 in0.0 mm 0.00 in0.0 mm
03:17 AM 53.2°F11.8°C 45.0°F7.2°C 74% 13.0 mph S20.9 kmh S 18.0 mph29.0 kmh 30.00 in1015.9 mb 0.00 in0.0 mm 0.00 in0.0 mm 0.00 in0.0 mm
03:22 AM 53.1°F11.7°C 44.5°F6.9°C 73% 7.0 mph S11.3 kmh S 20.0 mph32.2 kmh 30.01 in1016.3 mb 0.00 in0.0 mm 0.00 in0.0 mm 0.00 in0.0 mm
03:27 AM 53.1°F11.7°C 44.5°F6.9°C 73% 6.0 mph S9.7 kmh S 20.0 mph32.2 kmh 30.01 in1016.3 mb 0.00 in0.0 mm 0.00 in0.0 mm 0.00 in0.0 mm
03:32 AM 53.1°F11.7°C 44.5°F6.9°C 73% 14.0 mph S22.5 kmh S 20.0 mph32.2 kmh 30.01 in1016.3 mb 0.00 in0.0 mm 0.00 in0.0 mm 0.00 in0.0 mm
03:37 AM 53.1°F11.7°C 44.5°F6.9°C 73% 8.0 mph SSW12.9 kmh SSW 21.0 mph33.8 kmh 30.01 in1016.3 mb 0.00 in0.0 mm 0.00 in0.0 mm 0.00 in0.0 mm
03:42 AM 53.0°F11.7°C 44.4°F6.9°C 73% 20.0 mph S32.2 kmh S 21.0 mph33.8 kmh 30.01 in1016.3 mb 0.00 in0.0 mm 0.00 in0.0 mm 0.00 in0.0 mm
03:47 AM 53.0°F11.7°C 44.4°F6.9°C 73% 9.0 mph S14.5 kmh S 21.0 mph33.8 kmh 30.01 in1016.3 mb 0.00 in0.0 mm 0.00 in0.0 mm 0.00 in0.0 mm
03:52 AM 53.0°F11.7°C 44.4°F6.9°C 73% 12.0 mph S19.3 kmh S 21.0 mph33.8 kmh 30.02 in1016.6 mb 0.00 in0.0 mm 0.00 in0.0 mm 0.00 in0.0 mm
03:57 AM 52.8°F11.6°C 44.2°F6.8°C 73% 9.0 mph S14.5 kmh S 15.0 mph24.1 kmh 30.02 in1016.6 mb 0.00 in0.0 mm 0.00 in0.0 mm 0.00 in0.0 mm
04:02 AM 52.6°F11.4°C 44.0°F6.7°C 73% 7.0 mph SSW11.3 kmh SSW 17.0 mph27.4 kmh 30.01 in1016.3 mb 0.00 in0.0 mm 0.00 in0.0 mm 0.00 in0.0 mm
04:07 AM 52.6°F11.4°C 44.0°F6.7°C 73% 12.0 mph S19.3 kmh S 17.0 mph27.4 kmh 30.02 in1016.6 mb 0.00 in0.0 mm 0.00 in0.0 mm 0.00 in0.0 mm
04:12 AM 52.6°F11.4°C 44.0°F6.7°C 73% 8.0 mph SSE12.9 kmh SSE 17.0 mph27.4 kmh 30.02 in1016.6 mb 0.00 in0.0 mm 0.00 in0.0 mm 0.00 in0.0 mm
04:17 AM 52.6°F11.4°C 44.4°F6.9°C 74% 10.0 mph SSW16.1 kmh SSW 19.0 mph30.6 kmh 30.02 in1016.6 mb 0.00 in0.0 mm 0.00 in0.0 mm 0.00 in0.0 mm
04:22 AM 52.6°F11.4°C 44.0°F6.7°C 73% 19.0 mph S30.6 kmh S 19.0 mph30.6 kmh 30.01 in1016.3 mb 0.00 in0.0 mm 0.00 in0.0 mm 0.00 in0.0 mm
04:27 AM 52.6°F11.4°C 44.0°F6.7°C 73% 5.0 mph SSE8.0 kmh SSE 21.0 mph33.8 kmh 30.02 in1016.6 mb 0.00 in0.0 mm 0.00 in0.0 mm 0.00 in0.0 mm
04:32 AM 52.5°F11.4°C 43.9°F6.6°C 73% 10.0 mph S16.1 kmh S 21.0 mph33.8 kmh 30.02 in1016.6 mb 0.00 in0.0 mm 0.00 in0.0 mm 0.00 in0.0 mm
04:37 AM 52.5°F11.4°C 43.9°F6.6°C 73% 6.0 mph S9.7 kmh S 21.0 mph33.8 kmh 30.02 in1016.6 mb 0.00 in0.0 mm 0.00 in0.0 mm 0.00 in0.0 mm
04:42 AM 52.4°F11.3°C 44.2°F6.8°C 74% 6.0 mph SE9.7 kmh SE 21.0 mph33.8 kmh 30.02 in1016.6 mb 0.00 in0.0 mm 0.00 in0.0 mm 0.00 in0.0 mm
04:47 AM 52.4°F11.3°C 44.2°F6.8°C 74% 5.0 mph SSW8.0 kmh SSW 21.0 mph33.8 kmh 30.02 in1016.6 mb 0.00 in0.0 mm 0.00 in0.0 mm 0.00 in0.0 mm
04:52 AM 52.5°F11.4°C 44.3°F6.8°C 74% 9.0 mph SSW14.5 kmh SSW 21.0 mph33.8 kmh 30.02 in1016.6 mb 0.00 in0.0 mm 0.00 in0.0 mm 0.00 in0.0 mm
04:57 AM 52.4°F11.3°C 44.2°F6.8°C 74% 7.0 mph SW11.3 kmh SW 18.0 mph29.0 kmh 30.02 in1016.6 mb 0.00 in0.0 mm 0.00 in0.0 mm 0.00 in0.0 mm
05:02 AM 52.4°F11.3°C 44.2°F6.8°C 74% 9.0 mph S14.5 kmh S 18.0 mph29.0 kmh 30.02 in1016.6 mb 0.00 in0.0 mm 0.00 in0.0 mm 0.00 in0.0 mm
05:07 AM 52.4°F11.3°C 44.2°F6.8°C 74% 14.0 mph S22.5 kmh S 16.0 mph25.7 kmh 30.02 in1016.6 mb 0.00 in0.0 mm 0.00 in0.0 mm 0.00 in0.0 mm
05:12 AM 52.5°F11.4°C 44.3°F6.8°C 74% 13.0 mph S20.9 kmh S 17.0 mph27.4 kmh 30.02 in1016.6 mb 0.00 in0.0 mm 0.00 in0.0 mm 0.00 in0.0 mm
05:17 AM 52.5°F11.4°C 44.3°F6.8°C 74% 6.0 mph SSW9.7 kmh SSW 17.0 mph27.4 kmh 30.02 in1016.6 mb 0.00 in0.0 mm 0.00 in0.0 mm 0.00 in0.0 mm
05:22 AM 52.5°F11.4°C 44.3°F6.8°C 74% 8.0 mph SSW12.9 kmh SSW 19.0 mph30.6 kmh 30.02 in1016.6 mb 0.00 in0.0 mm 0.00 in0.0 mm 0.00 in0.0 mm
05:27 AM 52.5°F11.4°C 44.3°F6.8°C 74% 14.0 mph S22.5 kmh S 19.0 mph30.6 kmh 30.02 in1016.6 mb 0.00 in0.0 mm 0.00 in0.0 mm 0.00 in0.0 mm
05:32 AM 52.6°F11.4°C 44.4°F6.9°C 74% 9.0 mph S14.5 kmh S 19.0 mph30.6 kmh 30.02 in1016.6 mb 0.00 in0.0 mm 0.00 in0.0 mm 0.00 in0.0 mm
05:37 AM 52.6°F11.4°C 44.4°F6.9°C 74% 6.0 mph S9.7 kmh S 19.0 mph30.6 kmh 30.02 in1016.6 mb 0.00 in0.0 mm 0.00 in0.0 mm 0.00 in0.0 mm
05:42 AM 52.6°F11.4°C 44.4°F6.9°C 74% 12.0 mph S19.3 kmh S 18.0 mph29.0 kmh 30.02 in1016.6 mb 0.00 in0.0 mm 0.00 in0.0 mm 0.00 in0.0 mm
05:47 AM 52.7°F11.5°C 44.5°F6.9°C 74% 11.0 mph S17.7 kmh S 18.0 mph29.0 kmh 30.02 in1016.6 mb 0.00 in0.0 mm 0.00 in0.0 mm 0.00 in0.0 mm
05:52 AM 52.7°F11.5°C 44.5°F6.9°C 74% 15.0 mph S24.1 kmh S 18.0 mph29.0 kmh 30.02 in1016.6 mb 0.00 in0.0 mm 0.00 in0.0 mm 0.00 in0.0 mm
05:57 AM 52.9°F11.6°C 44.7°F7.1°C 74% 15.0 mph S24.1 kmh S 18.0 mph29.0 kmh 30.02 in1016.6 mb 0.00 in0.0 mm 0.00 in0.0 mm 0.00 in0.0 mm
06:02 AM 53.0°F11.7°C 44.8°F7.1°C 74% 8.0 mph SSW12.9 kmh SSW 17.0 mph27.4 kmh 30.02 in1016.6 mb 0.00 in0.0 mm 0.00 in0.0 mm 0.00 in0.0 mm
06:07 AM 53.0°F11.7°C 44.8°F7.1°C 74% 10.0 mph S16.1 kmh S 18.0 mph29.0 kmh 30.02 in1016.6 mb 0.00 in0.0 mm 0.00 in0.0 mm 0.00 in0.0 mm
06:12 AM 53.0°F11.7°C 44.8°F7.1°C 74% 8.0 mph S12.9 kmh S 18.0 mph29.0 kmh 30.02 in1016.6 mb 0.00 in0.0 mm 0.00 in0.0 mm 0.00 in0.0 mm
06:17 AM 52.9°F11.6°C 44.7°F7.1°C 74% 13.0 mph S20.9 kmh S 19.0 mph30.6 kmh 30.02 in1016.6 mb 0.00 in0.0 mm 0.00 in0.0 mm 0.00 in0.0 mm
06:22 AM 52.9°F11.6°C 44.7°F7.1°C 74% 15.0 mph S24.1 kmh S 19.0 mph30.6 kmh 30.02 in1016.6 mb 0.00 in0.0 mm 0.00 in0.0 mm 0.00 in0.0 mm
06:27 AM 53.0°F11.7°C 44.8°F7.1°C 74% 15.0 mph SSW24.1 kmh SSW 19.0 mph30.6 kmh 30.02 in1016.6 mb 0.00 in0.0 mm 0.00 in0.0 mm 0.00 in0.0 mm
06:32 AM 53.0°F11.7°C 44.8°F7.1°C 74% 8.0 mph S12.9 kmh S 19.0 mph30.6 kmh 30.02 in1016.6 mb 0.00 in0.0 mm 0.00 in0.0 mm 0.00 in0.0 mm
06:37 AM 53.1°F11.7°C 45.3°F7.4°C 75% 13.0 mph S20.9 kmh S 18.0 mph29.0 kmh 30.02 in1016.6 mb 0.00 in0.0 mm 0.00 in0.0 mm 0.00 in0.0 mm
06:42 AM 53.2°F11.8°C 45.3°F7.4°C 75% 20.0 mph S32.2 kmh S 20.0 mph32.2 kmh 30.01 in1016.3 mb 0.00 in0.0 mm 0.00 in0.0 mm 0.00 in0.0 mm
06:47 AM 53.3°F11.8°C 45.4°F7.4°C 75% 7.0 mph S11.3 kmh S 20.0 mph32.2 kmh 30.02 in1016.6 mb 0.00 in0.0 mm 0.00 in0.0 mm 0.00 in0.0 mm
06:52 AM 53.3°F11.8°C 45.8°F7.7°C 76% 17.0 mph S27.4 kmh S 30.0 mph48.3 kmh 30.02 in1016.6 mb 0.00 in0.0 mm 0.00 in0.0 mm 0.00 in0.0 mm
06:57 AM 53.4°F11.9°C 45.5°F7.5°C 75% 10.0 mph SW16.1 kmh SW 30.0 mph48.3 kmh 30.02 in1016.6 mb 0.00 in0.0 mm 0.00 in0.0 mm 0.00 in0.0 mm
07:02 AM 53.4°F11.9°C 45.5°F7.5°C 75% 11.0 mph SSE17.7 kmh SSE 30.0 mph48.3 kmh 30.02 in1016.6 mb 0.00 in0.0 mm 0.00 in0.0 mm 0.00 in0.0 mm
07:07 AM 53.4°F11.9°C 45.5°F7.5°C 75% 10.0 mph SSW16.1 kmh SSW 30.0 mph48.3 kmh 30.02 in1016.6 mb 0.00 in0.0 mm 0.00 in0.0 mm 0.00 in0.0 mm
07:12 AM 53.3°F11.8°C 45.4°F7.4°C 75% 17.0 mph S27.4 kmh S 19.0 mph30.6 kmh 30.03 in1016.9 mb 0.00 in0.0 mm 0.00 in0.0 mm 0.00 in0.0 mm
07:17 AM 53.3°F11.8°C 45.8°F7.7°C 76% 10.0 mph S16.1 kmh S 19.0 mph30.6 kmh 30.02 in1016.6 mb 0.00 in0.0 mm 0.00 in0.0 mm 0.00 in0.0 mm
07:22 AM 53.2°F11.8°C 46.1°F7.8°C 77% 13.0 mph S20.9 kmh S 19.0 mph30.6 kmh 30.02 in1016.6 mb 0.00 in0.0 mm 0.00 in0.0 mm 0.00 in0.0 mm
07:27 AM 53.1°F11.7°C 46.3°F7.9°C 78% 9.0 mph S14.5 kmh S 19.0 mph30.6 kmh 30.03 in1016.9 mb 0.00 in0.0 mm 0.00 in0.0 mm 0.00 in0.0 mm
07:32 AM 53.1°F11.7°C 46.0°F7.8°C 77% 11.0 mph S17.7 kmh S 19.0 mph30.6 kmh 30.03 in1016.9 mb 0.00 in0.0 mm 0.00 in0.0 mm 0.00 in0.0 mm
07:37 AM 53.1°F11.7°C 46.0°F7.8°C 77% 6.0 mph S9.7 kmh S 18.0 mph29.0 kmh 30.02 in1016.6 mb 0.00 in0.0 mm 0.00 in0.0 mm 0.00 in0.0 mm
07:42 AM 53.3°F11.8°C 46.2°F7.9°C 77% 17.0 mph S27.4 kmh S 21.0 mph33.8 kmh 30.02 in1016.6 mb 0.00 in0.0 mm 0.00 in0.0 mm 0.00 in0.0 mm
07:47 AM 53.4°F11.9°C 46.3°F7.9°C 77% 9.0 mph S14.5 kmh S 21.0 mph33.8 kmh 30.02 in1016.6 mb 0.00 in0.0 mm 0.00 in0.0 mm 0.00 in0.0 mm
07:52 AM 53.5°F11.9°C 46.4°F8.0°C 77% 16.0 mph S25.7 kmh S 21.0 mph33.8 kmh 30.02 in1016.6 mb 0.00 in0.0 mm 0.00 in0.0 mm 0.00 in0.0 mm
07:57 AM 53.5°F11.9°C 46.0°F7.8°C 76% 10.0 mph S16.1 kmh S 22.0 mph35.4 kmh 30.02 in1016.6 mb 0.00 in0.0 mm 0.00 in0.0 mm 0.00 in0.0 mm
08:02 AM 53.6°F12.0°C 46.1°F7.8°C 76% 12.0 mph S19.3 kmh S 22.0 mph35.4 kmh 30.02 in1016.6 mb 0.00 in0.0 mm 0.00 in0.0 mm 0.00 in0.0 mm
08:07 AM 53.6°F12.0°C 46.1°F7.8°C 76% 11.0 mph SSW17.7 kmh SSW 22.0 mph35.4 kmh 30.02 in1016.6 mb 0.00 in0.0 mm 0.00 in0.0 mm 0.00 in0.0 mm
08:12 AM 53.5°F11.9°C 46.0°F7.8°C 76% 8.0 mph S12.9 kmh S 22.0 mph35.4 kmh 30.02 in1016.6 mb 0.00 in0.0 mm 0.00 in0.0 mm 0.00 in0.0 mm
08:17 AM 53.3°F11.8°C 46.2°F7.9°C 77% 17.0 mph S27.4 kmh S 20.0 mph32.2 kmh 30.02 in1016.6 mb 0.00 in0.0 mm 0.00 in0.0 mm 0.00 in0.0 mm
08:22 AM 53.3°F11.8°C 46.2°F7.9°C 77% 8.0 mph S12.9 kmh S 22.0 mph35.4 kmh 30.02 in1016.6 mb 0.00 in0.0 mm 0.00 in0.0 mm 0.00 in0.0 mm
08:27 AM 53.3°F11.8°C 46.2°F7.9°C 77% 5.0 mph SE8.0 kmh SE 25.0 mph40.2 kmh 30.01 in1016.3 mb 0.00 in0.0 mm 0.00 in0.0 mm 0.00 in0.0 mm
08:32 AM 53.3°F11.8°C 46.5°F8.1°C 78% 17.0 mph S27.4 kmh S 25.0 mph40.2 kmh 30.02 in1016.6 mb 0.00 in0.0 mm 0.00 in0.0 mm 0.00 in0.0 mm
08:37 AM 53.3°F11.8°C 46.5°F8.1°C 78% 10.0 mph SSW16.1 kmh SSW 25.0 mph40.2 kmh 30.02 in1016.6 mb 0.00 in0.0 mm 0.00 in0.0 mm 0.00 in0.0 mm
08:42 AM 53.4°F11.9°C 46.6°F8.1°C 78% 13.0 mph S20.9 kmh S 25.0 mph40.2 kmh 30.01 in1016.3 mb 0.00 in0.0 mm 0.00 in0.0 mm 0.00 in0.0 mm
08:47 AM 53.3°F11.8°C 46.5°F8.1°C 78% 14.0 mph SSW22.5 kmh SSW 23.0 mph37.0 kmh 30.01 in1016.3 mb 0.00 in0.0 mm 0.00 in0.0 mm 0.00 in0.0 mm
08:52 AM 53.2°F11.8°C 46.8°F8.2°C 79% 16.0 mph S25.7 kmh S 23.0 mph37.0 kmh 30.01 in1016.3 mb 0.00 in0.0 mm 0.00 in0.0 mm 0.00 in0.0 mm
08:57 AM 53.1°F11.7°C 46.7°F8.2°C 79% 10.0 mph S16.1 kmh S 23.0 mph37.0 kmh 30.01 in1016.3 mb 0.00 in0.0 mm 0.00 in0.0 mm 0.00 in0.0 mm
09:02 AM 53.1°F11.7°C 46.7°F8.2°C 79% 10.0 mph S16.1 kmh S 23.0 mph37.0 kmh 30.01 in1016.3 mb 0.00 in0.0 mm 0.00 in0.0 mm 0.00 in0.0 mm
09:07 AM 53.0°F11.7°C 46.9°F8.3°C 80% 13.0 mph S20.9 kmh S 23.0 mph37.0 kmh 30.01 in1016.3 mb 0.00 in0.0 mm 0.00 in0.0 mm 0.00 in0.0 mm
09:12 AM 52.9°F11.6°C 46.8°F8.2°C 80% 11.0 mph S17.7 kmh S 23.0 mph37.0 kmh 30.02 in1016.6 mb 0.00 in0.0 mm 0.00 in0.0 mm 0.00 in0.0 mm
09:17 AM 52.8°F11.6°C 46.7°F8.2°C 80% 14.0 mph S22.5 kmh S 22.0 mph35.4 kmh 30.02 in1016.6 mb 0.00 in0.0 mm 0.00 in0.0 mm 0.00 in0.0 mm
09:22 AM 52.8°F11.6°C 46.7°F8.2°C 80% 10.0 mph S16.1 kmh S 22.0 mph35.4 kmh 30.02 in1016.6 mb 0.00 in0.0 mm 0.00 in0.0 mm 0.00 in0.0 mm
09:27 AM 52.8°F11.6°C 46.7°F8.2°C 80% 14.0 mph S22.5 kmh S 19.0 mph30.6 kmh 30.01 in1016.3 mb 0.00 in0.0 mm 0.00 in0.0 mm 0.00 in0.0 mm
09:32 AM 52.9°F11.6°C 46.8°F8.2°C 80% 10.0 mph S16.1 kmh S 19.0 mph30.6 kmh 30.02 in1016.6 mb 0.00 in0.0 mm 0.00 in0.0 mm 0.00 in0.0 mm
09:37 AM 53.0°F11.7°C 46.6°F8.1°C 79% 8.0 mph S12.9 kmh S 22.0 mph35.4 kmh 30.01 in1016.3 mb 0.00 in0.0 mm 0.00 in0.0 mm 0.00 in0.0 mm
09:42 AM 52.9°F11.6°C 46.1°F7.8°C 78% 19.0 mph SSW30.6 kmh SSW 22.0 mph35.4 kmh 30.01 in1016.3 mb 0.00 in0.0 mm 0.00 in0.0 mm 0.00 in0.0 mm
09:47 AM 53.0°F11.7°C 46.2°F7.9°C 78% 8.0 mph SSE12.9 kmh SSE 22.0 mph35.4 kmh 30.02 in1016.6 mb 0.00 in0.0 mm 0.00 in0.0 mm 0.00 in0.0 mm
09:52 AM 53.0°F11.7°C 46.2°F7.9°C 78% 9.0 mph S14.5 kmh S 22.0 mph35.4 kmh 30.01 in1016.3 mb 0.00 in0.0 mm 0.00 in0.0 mm 0.00 in0.0 mm
09:57 AM 53.0°F11.7°C 46.2°F7.9°C 78% 19.0 mph S30.6 kmh S 22.0 mph35.4 kmh 30.02 in1016.6 mb 0.00 in0.0 mm 0.00 in0.0 mm 0.00 in0.0 mm
10:02 AM 53.1°F11.7°C 46.3°F7.9°C 78% 18.0 mph S29.0 kmh S 22.0 mph35.4 kmh 30.02 in1016.6 mb 0.00 in0.0 mm 0.00 in0.0 mm 0.00 in0.0 mm
10:07 AM 53.2°F11.8°C 46.4°F8.0°C 78% 19.0 mph S30.6 kmh S 24.0 mph38.6 kmh 30.02 in1016.6 mb 0.00 in0.0 mm 0.00 in0.0 mm 0.00 in0.0 mm
10:12 AM 53.4°F11.9°C 46.6°F8.1°C 78% 16.0 mph S25.7 kmh S 24.0 mph38.6 kmh 30.02 in1016.6 mb 0.00 in0.0 mm 0.00 in0.0 mm 0.00 in0.0 mm
10:17 AM 53.7°F12.1°C 46.9°F8.3°C 78% 20.0 mph S32.2 kmh S 24.0 mph38.6 kmh 30.01 in1016.3 mb 0.00 in0.0 mm 0.00 in0.0 mm 0.00 in0.0 mm
10:22 AM 54.1°F12.3°C 47.3°F8.5°C 78% 12.0 mph S19.3 kmh S 24.0 mph38.6 kmh 30.02 in1016.6 mb 0.00 in0.0 mm 0.00 in0.0 mm 0.00 in0.0 mm
10:27 AM 54.2°F12.3°C 47.4°F8.6°C 78% 17.0 mph S27.4 kmh S 24.0 mph38.6 kmh 30.01 in1016.3 mb 0.00 in0.0 mm 0.00 in0.0 mm 0.00 in0.0 mm
10:32 AM 54.5°F12.5°C 47.7°F8.7°C 78% 13.0 mph S20.9 kmh S 24.0 mph38.6 kmh 30.01 in1016.3 mb 0.00 in0.0 mm 0.00 in0.0 mm 0.00 in0.0 mm
10:37 AM 54.7°F12.6°C 47.9°F8.8°C 78% 17.0 mph S27.4 kmh S 24.0 mph38.6 kmh 30.01 in1016.3 mb 0.00 in0.0 mm 0.00 in0.0 mm 0.00 in0.0 mm
10:42 AM 54.9°F12.7°C 48.1°F8.9°C 78% 15.0 mph SSE24.1 kmh SSE 24.0 mph38.6 kmh 30.01 in1016.3 mb 0.00 in0.0 mm 0.00 in0.0 mm 0.00 in0.0 mm
10:47 AM 55.2°F12.9°C 48.3°F9.1°C 78% 16.0 mph S25.7 kmh S 24.0 mph38.6 kmh 30.01 in1016.3 mb 0.00 in0.0 mm 0.00 in0.0 mm 0.00 in0.0 mm
10:52 AM 55.3°F12.9°C 48.4°F9.1°C 78% 12.0 mph S19.3 kmh S 24.0 mph38.6 kmh 30.01 in1016.3 mb 0.00 in0.0 mm 0.00 in0.0 mm 0.00 in0.0 mm
10:57 AM 55.4°F13.0°C 48.5°F9.2°C 78% 17.0 mph S27.4 kmh S 22.0 mph35.4 kmh 30.01 in1016.3 mb 0.00 in0.0 mm 0.00 in0.0 mm 0.00 in0.0 mm
11:02 AM 55.5°F13.1°C 48.6°F9.2°C 78% 14.0 mph S22.5 kmh S 22.0 mph35.4 kmh 30.02 in1016.6 mb 0.00 in0.0 mm 0.00 in0.0 mm 0.00 in0.0 mm
11:07 AM 55.5°F13.1°C 48.6°F9.2°C 78% 11.0 mph SSW17.7 kmh SSW 22.0 mph35.4 kmh 30.01 in1016.3 mb 0.00 in0.0 mm 0.00 in0.0 mm 0.00 in0.0 mm
11:12 AM 55.5°F13.1°C 48.6°F9.2°C 78% 7.0 mph S11.3 kmh S 25.0 mph40.2 kmh 30.01 in1016.3 mb 0.00 in0.0 mm 0.00 in0.0 mm 0.00 in0.0 mm
11:17 AM 55.5°F13.1°C 48.6°F9.2°C 78% 14.0 mph S22.5 kmh S 25.0 mph40.2 kmh 30.01 in1016.3 mb 0.00 in0.0 mm 0.00 in0.0 mm 0.00 in0.0 mm
11:22 AM 55.4°F13.0°C 48.5°F9.2°C 78% 13.0 mph S20.9 kmh S 25.0 mph40.2 kmh 30.01 in1016.3 mb 0.00 in0.0 mm 0.00 in0.0 mm 0.00 in0.0 mm
11:27 AM 55.7°F13.2°C 49.2°F9.6°C 79% 7.0 mph S11.3 kmh S 25.0 mph40.2 kmh 30.01 in1016.3 mb 0.00 in0.0 mm 0.00 in0.0 mm 0.00 in0.0 mm
11:32 AM 56.1°F13.4°C 49.2°F9.6°C 78% 9.0 mph S14.5 kmh S 19.0 mph30.6 kmh 30.01 in1016.3 mb 0.00 in0.0 mm 0.00 in0.0 mm 0.00 in0.0 mm
11:37 AM 56.5°F13.6°C 49.6°F9.8°C 78% 3.0 mph S4.8 kmh S 19.0 mph30.6 kmh 30.00 in1015.9 mb 0.00 in0.0 mm 0.00 in0.0 mm 0.00 in0.0 mm
11:42 AM 56.7°F13.7°C 49.4°F9.7°C 77% 9.0 mph S14.5 kmh S 23.0 mph37.0 kmh 30.00 in1015.9 mb 0.00 in0.0 mm 0.00 in0.0 mm 0.00 in0.0 mm
11:47 AM 57.0°F13.9°C 49.7°F9.8°C 77% 14.0 mph S22.5 kmh S 24.0 mph38.6 kmh 30.00 in1015.9 mb 0.00 in0.0 mm 0.00 in0.0 mm 0.00 in0.0 mm
11:52 AM 57.1°F13.9°C 49.8°F9.9°C 77% 13.0 mph SSW20.9 kmh SSW 24.0 mph38.6 kmh 30.01 in1016.3 mb 0.00 in0.0 mm 0.00 in0.0 mm 0.00 in0.0 mm
11:57 AM 57.4°F14.1°C 49.8°F9.9°C 76% 22.0 mph S35.4 kmh S 24.0 mph38.6 kmh 30.01 in1016.3 mb 0.00 in0.0 mm 0.00 in0.0 mm 0.00 in0.0 mm
12:02 PM 57.5°F14.2°C 49.9°F9.9°C 76% 6.0 mph SE9.7 kmh SE 30.0 mph48.3 kmh 30.00 in1015.9 mb 0.00 in0.0 mm 0.00 in0.0 mm 0.00 in0.0 mm
12:07 PM 57.8°F14.3°C 49.8°F9.9°C 75% 17.0 mph S27.4 kmh S 30.0 mph48.3 kmh 30.00 in1015.9 mb 0.00 in0.0 mm 0.00 in0.0 mm 0.00 in0.0 mm
12:12 PM 57.8°F14.3°C 49.4°F9.7°C 74% 13.0 mph S20.9 kmh S 30.0 mph48.3 kmh 30.00 in1015.9 mb 0.00 in0.0 mm 0.00 in0.0 mm 0.00 in0.0 mm
12:17 PM 58.0°F14.4°C 50.0°F10.0°C 75% 6.0 mph SSW9.7 kmh SSW 30.0 mph48.3 kmh 30.00 in1015.9 mb 0.00 in0.0 mm 0.00 in0.0 mm 0.00 in0.0 mm
12:22 PM 58.2°F14.6°C 49.8°F9.9°C 74% 9.0 mph S14.5 kmh S 22.0 mph35.4 kmh 30.00 in1015.9 mb 0.00 in0.0 mm 0.00 in0.0 mm 0.00 in0.0 mm
12:27 PM 58.4°F14.7°C 49.6°F9.8°C 73% 7.0 mph SSW11.3 kmh SSW 24.0 mph38.6 kmh 29.99 in1015.6 mb 0.00 in0.0 mm 0.00 in0.0 mm 0.00 in0.0 mm
12:32 PM 58.4°F14.7°C 49.6°F9.8°C 73% 9.0 mph S14.5 kmh S 24.0 mph38.6 kmh 29.99 in1015.6 mb 0.00 in0.0 mm 0.00 in0.0 mm 0.00 in0.0 mm
12:37 PM 58.5°F14.7°C 49.7°F9.8°C 73% 10.0 mph S16.1 kmh S 24.0 mph38.6 kmh 29.98 in1015.2 mb 0.00 in0.0 mm 0.00 in0.0 mm 0.00 in0.0 mm
12:42 PM 58.6°F14.8°C 49.8°F9.9°C 73% 15.0 mph S24.1 kmh S 24.0 mph38.6 kmh 29.98 in1015.2 mb 0.00 in0.0 mm 0.00 in0.0 mm 0.00 in0.0 mm
12:47 PM 58.8°F14.9°C 49.6°F9.8°C 72% 4.0 mph SSE6.4 kmh SSE 22.0 mph35.4 kmh 29.98 in1015.2 mb 0.00 in0.0 mm 0.00 in0.0 mm 0.00 in0.0 mm
12:52 PM 58.9°F14.9°C 49.7°F9.8°C 72% 14.0 mph SSW22.5 kmh SSW 22.0 mph35.4 kmh 29.97 in1014.9 mb 0.00 in0.0 mm 0.00 in0.0 mm 0.00 in0.0 mm
12:57 PM 59.1°F15.1°C 49.5°F9.7°C 71% 13.0 mph S20.9 kmh S 29.0 mph46.7 kmh 29.97 in1014.9 mb 0.00 in0.0 mm 0.00 in0.0 mm 0.00 in0.0 mm
01:02 PM 59.3°F15.2°C 49.3°F9.6°C 70% 21.0 mph S33.8 kmh S 29.0 mph46.7 kmh 29.97 in1014.9 mb 0.00 in0.0 mm 0.00 in0.0 mm 0.00 in0.0 mm
01:07 PM 59.3°F15.2°C 49.3°F9.6°C 70% 13.0 mph S20.9 kmh S 29.0 mph46.7 kmh 29.96 in1014.6 mb 0.00 in0.0 mm 0.00 in0.0 mm 0.00 in0.0 mm
01:12 PM 59.1°F15.1°C 49.1°F9.5°C 70% 26.0 mph S41.8 kmh S 29.0 mph46.7 kmh 29.96 in1014.6 mb 0.00 in0.0 mm 0.00 in0.0 mm 0.00 in0.0 mm
01:17 PM 59.0°F15.0°C 49.0°F9.4°C 70% 10.0 mph S16.1 kmh S 26.0 mph41.8 kmh 29.96 in1014.6 mb 0.00 in0.0 mm 0.00 in0.0 mm 0.00 in0.0 mm
01:22 PM 58.9°F14.9°C 49.3°F9.6°C 71% 24.0 mph S38.6 kmh S 32.0 mph51.5 kmh 29.96 in1014.6 mb 0.00 in0.0 mm 0.00 in0.0 mm 0.00 in0.0 mm
01:27 PM 58.8°F14.9°C 49.2°F9.6°C 71% 7.0 mph S11.3 kmh S 32.0 mph51.5 kmh 29.96 in1014.6 mb 0.00 in0.0 mm 0.00 in0.0 mm 0.00 in0.0 mm
01:32 PM 58.8°F14.9°C 49.6°F9.8°C 72% 18.0 mph S29.0 kmh S 32.0 mph51.5 kmh 29.96 in1014.6 mb 0.00 in0.0 mm 0.00 in0.0 mm 0.00 in0.0 mm
01:37 PM 58.8°F14.9°C 50.0°F10.0°C 73% 15.0 mph S24.1 kmh S 32.0 mph51.5 kmh 29.95 in1014.2 mb 0.00 in0.0 mm 0.00 in0.0 mm 0.00 in0.0 mm
01:42 PM 58.8°F14.9°C 51.1°F10.6°C 76% 21.0 mph S33.8 kmh S 23.0 mph37.0 kmh 29.95 in1014.2 mb 0.00 in0.0 mm 0.00 in0.0 mm 0.00 in0.0 mm
01:47 PM 58.7°F14.8°C 51.7°F10.9°C 78% 14.0 mph S22.5 kmh S 28.0 mph45.1 kmh 29.95 in1014.2 mb 0.00 in0.0 mm 0.00 in0.0 mm 0.00 in0.0 mm
01:52 PM 58.5°F14.7°C 52.2°F11.2°C 80% 16.0 mph S25.7 kmh S 28.0 mph45.1 kmh 29.95 in1014.2 mb 0.00 in0.0 mm 0.00 in0.0 mm 0.00 in0.0 mm
01:57 PM 58.1°F14.5°C 52.5°F11.4°C 82% 13.0 mph S20.9 kmh S 28.0 mph45.1 kmh 29.95 in1014.2 mb 0.00 in0.0 mm 0.00 in0.0 mm 0.01 in0.3 mm
02:02 PM 57.7°F14.3°C 52.5°F11.4°C 83% 9.0 mph S14.5 kmh S 28.0 mph45.1 kmh 29.94 in1013.9 mb 0.00 in0.0 mm 0.00 in0.0 mm 0.01 in0.3 mm
02:07 PM 57.3°F14.1°C 52.4°F11.3°C 84% 9.0 mph SSE14.5 kmh SSE 21.0 mph33.8 kmh 29.94 in1013.9 mb 0.00 in0.0 mm 0.00 in0.0 mm 0.01 in0.3 mm
02:12 PM 56.9°F13.8°C 52.4°F11.3°C 85% 6.0 mph S9.7 kmh S 21.0 mph33.8 kmh 29.94 in1013.9 mb 0.00 in0.0 mm 0.00 in0.0 mm 0.02 in0.5 mm
02:17 PM 56.3°F13.5°C 52.1°F11.2°C 86% 5.0 mph SW8.0 kmh SW 17.0 mph27.4 kmh 29.93 in1013.5 mb 0.14 in3.6 mm 1.68 in42.7 mm 0.03 in0.8 mm
02:22 PM 55.8°F13.2°C 51.6°F10.9°C 86% 6.0 mph S9.7 kmh S 17.0 mph27.4 kmh 29.93 in1013.5 mb 0.06 in1.5 mm 0.00 in0.0 mm 0.03 in0.8 mm
02:27 PM 55.5°F13.1°C 51.3°F10.7°C 86% 12.0 mph S19.3 kmh S 15.0 mph24.1 kmh 29.93 in1013.5 mb 0.04 in1.0 mm 0.00 in0.0 mm 0.03 in0.8 mm
02:32 PM 55.4°F13.0°C 51.6°F10.9°C 87% 10.0 mph SSW16.1 kmh SSW 15.0 mph24.1 kmh 29.93 in1013.5 mb 0.00 in0.0 mm 0.00 in0.0 mm 0.03 in0.8 mm
02:37 PM 55.3°F12.9°C 51.5°F10.8°C 87% 8.0 mph SSW12.9 kmh SSW 15.0 mph24.1 kmh 29.93 in1013.5 mb 0.00 in0.0 mm 0.00 in0.0 mm 0.03 in0.8 mm
02:42 PM 55.1°F12.8°C 51.3°F10.7°C 87% 7.0 mph SSW11.3 kmh SSW 15.0 mph24.1 kmh 29.93 in1013.5 mb 0.00 in0.0 mm 0.00 in0.0 mm 0.03 in0.8 mm
02:47 PM 55.0°F12.8°C 51.2°F10.7°C 87% 7.0 mph S11.3 kmh S 15.0 mph24.1 kmh 29.92 in1013.2 mb 0.00 in0.0 mm 0.00 in0.0 mm 0.03 in0.8 mm
02:52 PM 54.9°F12.7°C 51.1°F10.6°C 87% 8.0 mph S12.9 kmh S 15.0 mph24.1 kmh 29.92 in1013.2 mb 0.00 in0.0 mm 0.00 in0.0 mm 0.04 in1.0 mm
02:57 PM 54.8°F12.7°C 51.0°F10.6°C 87% 6.0 mph SSW9.7 kmh SSW 15.0 mph24.1 kmh 29.92 in1013.2 mb 0.00 in0.0 mm 0.00 in0.0 mm 0.04 in1.0 mm
03:02 PM 54.7°F12.6°C 50.9°F10.5°C 87% 5.0 mph SSW8.0 kmh SSW 15.0 mph24.1 kmh 29.93 in1013.5 mb 0.00 in0.0 mm 0.00 in0.0 mm 0.04 in1.0 mm
03:07 PM 54.6°F12.6°C 50.8°F10.4°C 87% 2.0 mph SW3.2 kmh SW 9.0 mph14.5 kmh 29.93 in1013.5 mb 0.00 in0.0 mm 0.00 in0.0 mm 0.04 in1.0 mm
03:12 PM 54.5°F12.5°C 50.7°F10.4°C 87% 2.0 mph SSW3.2 kmh SSW 9.0 mph14.5 kmh 29.92 in1013.2 mb 0.00 in0.0 mm 0.00 in0.0 mm 0.05 in1.3 mm
03:17 PM 54.5°F12.5°C 50.7°F10.4°C 87% 3.0 mph S4.8 kmh S 9.0 mph14.5 kmh 29.92 in1013.2 mb 0.00 in0.0 mm 0.00 in0.0 mm 0.05 in1.3 mm
03:22 PM 54.4°F12.4°C 50.6°F10.3°C 87% 4.0 mph SSW6.4 kmh SSW 10.0 mph16.1 kmh 29.91 in1012.9 mb 0.00 in0.0 mm 0.00 in0.0 mm 0.05 in1.3 mm
03:27 PM 54.3°F12.4°C 50.5°F10.3°C 87% 6.0 mph S9.7 kmh S 10.0 mph16.1 kmh 29.91 in1012.9 mb 0.04 in1.0 mm 0.48 in12.2 mm 0.06 in1.5 mm
03:32 PM 54.2°F12.3°C 50.4°F10.2°C 87% 3.0 mph S4.8 kmh S 10.0 mph16.1 kmh 29.91 in1012.9 mb 0.09 in2.3 mm 0.60 in15.2 mm 0.07 in1.8 mm
03:37 PM 54.1°F12.3°C 50.6°F10.3°C 88% 2.0 mph S3.2 kmh S 10.0 mph16.1 kmh 29.90 in1012.5 mb 0.09 in2.3 mm 0.00 in0.0 mm 0.07 in1.8 mm
03:42 PM 54.1°F12.3°C 50.6°F10.3°C 88% Calm Calm -- 29.90 in1012.5 mb 0.06 in1.5 mm 0.00 in0.0 mm 0.08 in2.0 mm
03:47 PM 54.0°F12.2°C 50.5°F10.3°C 88% 4.0 mph S6.4 kmh S 6.0 mph9.7 kmh 29.90 in1012.5 mb 0.06 in1.5 mm 0.00 in0.0 mm 0.08 in2.0 mm
03:52 PM 54.0°F12.2°C 50.5°F10.3°C 88% Calm Calm 2.0 mph3.2 kmh 29.90 in1012.5 mb 0.05 in1.3 mm 0.00 in0.0 mm 0.08 in2.0 mm
03:57 PM 53.9°F12.2°C 50.4°F10.2°C 88% Calm Calm -- 29.90 in1012.5 mb 0.04 in1.0 mm 0.00 in0.0 mm 0.08 in2.0 mm
04:02 PM 53.8°F12.1°C 50.3°F10.2°C 88% Calm Calm 2.0 mph3.2 kmh 29.89 in1012.2 mb 0.22 in5.6 mm 0.20 in5.1 mm 0.10 in2.5 mm
04:07 PM 53.9°F12.2°C 50.4°F10.2°C 88% Calm Calm 5.0 mph8.0 kmh 29.89 in1012.2 mb 0.10 in2.5 mm 0.00 in0.0 mm 0.10 in2.5 mm
04:12 PM 53.9°F12.2°C 50.4°F10.2°C 88% Calm Calm 4.0 mph6.4 kmh 29.89 in1012.2 mb 0.05 in1.3 mm 0.00 in0.0 mm 0.10 in2.5 mm
04:17 PM 53.9°F12.2°C 50.4°F10.2°C 88% Calm Calm 2.0 mph3.2 kmh 29.88 in1011.9 mb 0.04 in1.0 mm 0.00 in0.0 mm 0.10 in2.5 mm
04:22 PM 53.9°F12.2°C 50.4°F10.2°C 88% Calm Calm 3.0 mph4.8 kmh 29.88 in1011.9 mb 0.00 in0.0 mm 0.00 in0.0 mm 0.10 in2.5 mm
04:27 PM 54.0°F12.2°C 50.8°F10.4°C 89% Calm Calm 8.0 mph12.9 kmh 29.88 in1011.9 mb 0.00 in0.0 mm 0.00 in0.0 mm 0.10 in2.5 mm
04:32 PM 54.2°F12.3°C 51.0°F10.6°C 89% 3.0 mph S4.8 kmh S 10.0 mph16.1 kmh 29.87 in1011.5 mb 0.00 in0.0 mm 0.00 in0.0 mm 0.10 in2.5 mm
04:37 PM 54.4°F12.4°C 51.2°F10.7°C 89% 5.0 mph SSW8.0 kmh SSW 15.0 mph24.1 kmh 29.88 in1011.9 mb 0.00 in0.0 mm 0.00 in0.0 mm 0.10 in2.5 mm
04:42 PM 54.6°F12.6°C 51.4°F10.8°C 89% 1.0 mph S1.6 kmh S 18.0 mph29.0 kmh 29.87 in1011.5 mb 0.00 in0.0 mm 0.00 in0.0 mm 0.10 in2.5 mm
04:47 PM 54.9°F12.7°C 51.7°F10.9°C 89% 9.0 mph S14.5 kmh S 18.0 mph29.0 kmh 29.87 in1011.5 mb 0.00 in0.0 mm 0.00 in0.0 mm 0.11 in2.8 mm
04:52 PM 55.1°F12.8°C 51.9°F11.1°C 89% Calm Calm 18.0 mph29.0 kmh 29.87 in1011.5 mb 0.00 in0.0 mm 0.00 in0.0 mm 0.11 in2.8 mm
04:57 PM 55.2°F12.9°C 52.0°F11.1°C 89% 2.0 mph SSW3.2 kmh SSW 18.0 mph29.0 kmh 29.87 in1011.5 mb 0.00 in0.0 mm 0.00 in0.0 mm 0.11 in2.8 mm
05:02 PM 55.3°F12.9°C 52.1°F11.2°C 89% 8.0 mph S12.9 kmh S 19.0 mph30.6 kmh 29.87 in1011.5 mb 0.00 in0.0 mm 0.00 in0.0 mm 0.11 in2.8 mm
05:07 PM 55.4°F13.0°C 52.2°F11.2°C 89% 8.0 mph S12.9 kmh S 19.0 mph30.6 kmh 29.87 in1011.5 mb 0.00 in0.0 mm 0.00 in0.0 mm 0.11 in2.8 mm
05:12 PM 55.4°F13.0°C 52.2°F11.2°C 89% 3.0 mph SW4.8 kmh SW 19.0 mph30.6 kmh 29.86 in1011.2 mb 0.00 in0.0 mm 0.00 in0.0 mm 0.12 in3.0 mm
05:17 PM 55.4°F13.0°C 52.2°F11.2°C 89% 8.0 mph SSE12.9 kmh SSE 19.0 mph30.6 kmh 29.87 in1011.5 mb 0.00 in0.0 mm 0.00 in0.0 mm 0.12 in3.0 mm
05:22 PM 55.4°F13.0°C 52.2°F11.2°C 89% 10.0 mph SSE16.1 kmh SSE 17.0 mph27.4 kmh 29.87 in1011.5 mb 0.07 in1.8 mm 0.84 in21.3 mm 0.13 in3.3 mm
05:27 PM 55.4°F13.0°C 52.2°F11.2°C 89% 6.0 mph S9.7 kmh S 17.0 mph27.4 kmh 29.86 in1011.2 mb 0.20 in5.1 mm 1.56 in39.6 mm 0.15 in3.8 mm
05:32 PM 55.4°F13.0°C 52.2°F11.2°C 89% 8.0 mph S12.9 kmh S 15.0 mph24.1 kmh 29.86 in1011.2 mb 0.11 in2.8 mm 0.00 in0.0 mm 0.15 in3.8 mm
05:37 PM 55.4°F13.0°C 52.2°F11.2°C 89% 12.0 mph S19.3 kmh S 15.0 mph24.1 kmh 29.86 in1011.2 mb 0.10 in2.5 mm 0.00 in0.0 mm 0.16 in4.1 mm
05:42 PM 55.3°F12.9°C 52.1°F11.2°C 89% Calm Calm 15.0 mph24.1 kmh 29.86 in1011.2 mb 0.09 in2.3 mm 0.00 in0.0 mm 0.17 in4.3 mm
05:47 PM 55.3°F12.9°C 52.1°F11.2°C 89% 10.0 mph S16.1 kmh S 15.0 mph24.1 kmh 29.86 in1011.2 mb 0.07 in1.8 mm 0.00 in0.0 mm 0.17 in4.3 mm
05:52 PM 55.3°F12.9°C 52.1°F11.2°C 89% 5.0 mph S8.0 kmh S 15.0 mph24.1 kmh 29.86 in1011.2 mb 0.05 in1.3 mm 0.00 in0.0 mm 0.17 in4.3 mm
05:57 PM 55.3°F12.9°C 52.1°F11.2°C 89% 8.0 mph SE12.9 kmh SE 16.0 mph25.7 kmh 29.86 in1011.2 mb 0.00 in0.0 mm 0.00 in0.0 mm 0.17 in4.3 mm
06:02 PM 55.3°F12.9°C 52.1°F11.2°C 89% 11.0 mph S17.7 kmh S 16.0 mph25.7 kmh 29.86 in1011.2 mb 0.00 in0.0 mm 0.00 in0.0 mm 0.17 in4.3 mm
06:07 PM 55.3°F12.9°C 52.1°F11.2°C 89% 6.0 mph S9.7 kmh S 16.0 mph25.7 kmh 29.86 in1011.2 mb 0.00 in0.0 mm 0.00 in0.0 mm 0.17 in4.3 mm
06:12 PM 55.4°F13.0°C 52.2°F11.2°C 89% 8.0 mph S12.9 kmh S 16.0 mph25.7 kmh 29.86 in1011.2 mb 0.00 in0.0 mm 0.00 in0.0 mm 0.17 in4.3 mm
06:17 PM 55.4°F13.0°C 52.2°F11.2°C 89% 9.0 mph S14.5 kmh S 16.0 mph25.7 kmh 29.86 in1011.2 mb 0.00 in0.0 mm 0.00 in0.0 mm 0.17 in4.3 mm
06:22 PM 55.5°F13.1°C 52.3°F11.3°C 89% 7.0 mph S11.3 kmh S 16.0 mph25.7 kmh 29.86 in1011.2 mb 0.00 in0.0 mm 0.00 in0.0 mm 0.17 in4.3 mm
06:27 PM 55.5°F13.1°C 52.3°F11.3°C 89% 10.0 mph S16.1 kmh S 13.0 mph20.9 kmh 29.86 in1011.2 mb 0.00 in0.0 mm 0.00 in0.0 mm 0.18 in4.6 mm
06:32 PM 55.6°F13.1°C 52.4°F11.3°C 89% 9.0 mph S14.5 kmh S 19.0 mph30.6 kmh 29.86 in1011.2 mb 0.10 in2.5 mm 1.20 in30.5 mm 0.19 in4.8 mm
06:37 PM 55.7°F13.2°C 52.5°F11.4°C 89% 8.0 mph S12.9 kmh S 19.0 mph30.6 kmh 29.86 in1011.2 mb 0.10 in2.5 mm 0.00 in0.0 mm 0.20 in5.1 mm
06:42 PM 55.7°F13.2°C 52.5°F11.4°C 89% 8.0 mph S12.9 kmh S 19.0 mph30.6 kmh 29.86 in1011.2 mb 0.16 in4.1 mm 0.72 in18.3 mm 0.21 in5.3 mm
06:47 PM 55.8°F13.2°C 52.6°F11.4°C 89% 5.0 mph SW8.0 kmh SW 19.0 mph30.6 kmh 29.86 in1011.2 mb 0.15 in3.8 mm 0.00 in0.0 mm 0.22 in5.6 mm
06:52 PM 55.8°F13.2°C 52.6°F11.4°C 89% 10.0 mph SSW16.1 kmh SSW 17.0 mph27.4 kmh 29.86 in1011.2 mb 0.12 in3.0 mm 0.00 in0.0 mm 0.23 in5.8 mm
06:57 PM 55.8°F13.2°C 52.6°F11.4°C 89% 19.0 mph SSW30.6 kmh SSW 21.0 mph33.8 kmh 29.86 in1011.2 mb 0.08 in2.0 mm 0.00 in0.0 mm 0.24 in6.1 mm
07:02 PM 55.8°F13.2°C 52.6°F11.4°C 89% 7.0 mph S11.3 kmh S 21.0 mph33.8 kmh 29.86 in1011.2 mb 0.08 in2.0 mm 0.00 in0.0 mm 0.24 in6.1 mm
07:07 PM 55.7°F13.2°C 52.5°F11.4°C 89% 6.0 mph S9.7 kmh S 21.0 mph33.8 kmh 29.86 in1011.2 mb 0.07 in1.8 mm 0.00 in0.0 mm 0.25 in6.4 mm
07:12 PM 55.6°F13.1°C 52.4°F11.3°C 89% 4.0 mph S6.4 kmh S 21.0 mph33.8 kmh 29.86 in1011.2 mb 0.07 in1.8 mm 0.00 in0.0 mm 0.25 in6.4 mm
07:17 PM 55.5°F13.1°C 52.3°F11.3°C 89% 11.0 mph S17.7 kmh S 13.0 mph20.9 kmh 29.86 in1011.2 mb 0.04 in1.0 mm 0.00 in0.0 mm 0.25 in6.4 mm
07:22 PM 55.4°F13.0°C 52.2°F11.2°C 89% 8.0 mph S12.9 kmh S 13.0 mph20.9 kmh 29.86 in1011.2 mb 0.00 in0.0 mm 0.00 in0.0 mm 0.25 in6.4 mm
07:27 PM 55.3°F12.9°C 52.1°F11.2°C 89% 13.0 mph S20.9 kmh S 14.0 mph22.5 kmh 29.85 in1010.8 mb 0.00 in0.0 mm 0.00 in0.0 mm 0.25 in6.4 mm
07:32 PM 55.3°F12.9°C 52.1°F11.2°C 89% 7.0 mph S11.3 kmh S 14.0 mph22.5 kmh 29.85 in1010.8 mb 0.00 in0.0 mm 0.00 in0.0 mm 0.25 in6.4 mm
07:37 PM 55.3°F12.9°C 52.1°F11.2°C 89% 7.0 mph S11.3 kmh S 14.0 mph22.5 kmh 29.85 in1010.8 mb 0.00 in0.0 mm 0.00 in0.0 mm 0.25 in6.4 mm
07:42 PM 55.3°F12.9°C 52.1°F11.2°C 89% 2.0 mph S3.2 kmh S 14.0 mph22.5 kmh 29.85 in1010.8 mb 0.00 in0.0 mm 0.00 in0.0 mm 0.25 in6.4 mm
07:47 PM 55.4°F13.0°C 52.2°F11.2°C 89% 3.0 mph S4.8 kmh S 13.0 mph20.9 kmh 29.85 in1010.8 mb 0.00 in0.0 mm 0.00 in0.0 mm 0.25 in6.4 mm
07:52 PM 55.5°F13.1°C 52.3°F11.3°C 89% Calm Calm 13.0 mph20.9 kmh 29.85 in1010.8 mb 0.00 in0.0 mm 0.00 in0.0 mm 0.25 in6.4 mm
07:57 PM 55.7°F13.2°C 52.5°F11.4°C 89% 7.0 mph S11.3 kmh S 13.0 mph20.9 kmh 29.85 in1010.8 mb 0.00 in0.0 mm 0.00 in0.0 mm 0.25 in6.4 mm
08:02 PM 55.9°F13.3°C 52.7°F11.5°C 89% 10.0 mph SE16.1 kmh SE 15.0 mph24.1 kmh 29.85 in1010.8 mb 0.00 in0.0 mm 0.00 in0.0 mm 0.25 in6.4 mm
08:07 PM 56.2°F13.4°C 53.0°F11.7°C 89% 15.0 mph S24.1 kmh S 16.0 mph25.7 kmh 29.84 in1010.5 mb 0.00 in0.0 mm 0.00 in0.0 mm 0.25 in6.4 mm
08:12 PM 56.3°F13.5°C 53.1°F11.7°C 89% 9.0 mph S14.5 kmh S 16.0 mph25.7 kmh 29.84 in1010.5 mb 0.00 in0.0 mm 0.00 in0.0 mm 0.25 in6.4 mm
08:17 PM 56.5°F13.6°C 53.3°F11.8°C 89% 10.0 mph S16.1 kmh S 16.0 mph25.7 kmh 29.84 in1010.5 mb 0.00 in0.0 mm 0.00 in0.0 mm 0.25 in6.4 mm
08:22 PM 56.5°F13.6°C 53.3°F11.8°C 89% 3.0 mph S4.8 kmh S 16.0 mph25.7 kmh 29.84 in1010.5 mb 0.00 in0.0 mm 0.00 in0.0 mm 0.25 in6.4 mm
08:27 PM 56.6°F13.7°C 53.4°F11.9°C 89% 6.0 mph S9.7 kmh S 15.0 mph24.1 kmh 29.84 in1010.5 mb 0.00 in0.0 mm 0.00 in0.0 mm 0.25 in6.4 mm
08:32 PM 56.7°F13.7°C 53.5°F11.9°C 89% 7.0 mph S11.3 kmh S 19.0 mph30.6 kmh 29.84 in1010.5 mb 0.00 in0.0 mm 0.00 in0.0 mm 0.25 in6.4 mm
08:37 PM 56.8°F13.8°C 53.6°F12.0°C 89% 9.0 mph S14.5 kmh S 19.0 mph30.6 kmh 29.84 in1010.5 mb 0.00 in0.0 mm 0.00 in0.0 mm 0.25 in6.4 mm
08:42 PM 56.9°F13.8°C 53.7°F12.1°C 89% 4.0 mph S6.4 kmh S 21.0 mph33.8 kmh 29.84 in1010.5 mb 0.00 in0.0 mm 0.00 in0.0 mm 0.25 in6.4 mm
08:47 PM 56.9°F13.8°C 53.7°F12.1°C 89% 4.0 mph SE6.4 kmh SE 21.0 mph33.8 kmh 29.84 in1010.5 mb 0.00 in0.0 mm 0.00 in0.0 mm 0.25 in6.4 mm
08:52 PM 57.0°F13.9°C 53.8°F12.1°C 89% 8.0 mph S12.9 kmh S 21.0 mph33.8 kmh 29.83 in1010.2 mb 0.00 in0.0 mm 0.00 in0.0 mm 0.25 in6.4 mm
08:57 PM 57.0°F13.9°C 53.8°F12.1°C 89% 5.0 mph S8.0 kmh S 21.0 mph33.8 kmh 29.83 in1010.2 mb 0.00 in0.0 mm 0.00 in0.0 mm 0.25 in6.4 mm
09:02 PM 57.1°F13.9°C 53.9°F12.2°C 89% 3.0 mph S4.8 kmh S 18.0 mph29.0 kmh 29.83 in1010.2 mb 0.00 in0.0 mm 0.00 in0.0 mm 0.25 in6.4 mm
09:07 PM 57.2°F14.0°C 54.0°F12.2°C 89% Calm Calm 18.0 mph29.0 kmh 29.83 in1010.2 mb 0.00 in0.0 mm 0.00 in0.0 mm 0.25 in6.4 mm
09:12 PM 57.2°F14.0°C 54.0°F12.2°C 89% 5.0 mph SSW8.0 kmh SSW 18.0 mph29.0 kmh 29.83 in1010.2 mb 0.00 in0.0 mm 0.00 in0.0 mm 0.25 in6.4 mm
09:17 PM 57.4°F14.1°C 54.1°F12.3°C 89% 7.0 mph S11.3 kmh S 18.0 mph29.0 kmh 29.83 in1010.2 mb 0.00 in0.0 mm 0.00 in0.0 mm 0.25 in6.4 mm
09:22 PM 57.5°F14.2°C 54.2°F12.3°C 89% 7.0 mph S11.3 kmh S 18.0 mph29.0 kmh 29.83 in1010.2 mb 0.00 in0.0 mm 0.00 in0.0 mm 0.25 in6.4 mm
09:27 PM 57.5°F14.2°C 54.2°F12.3°C 89% 9.0 mph S14.5 kmh S 18.0 mph29.0 kmh 29.83 in1010.2 mb 0.00 in0.0 mm 0.00 in0.0 mm 0.25 in6.4 mm
09:32 PM 57.6°F14.2°C 54.3°F12.4°C 89% 15.0 mph S24.1 kmh S 18.0 mph29.0 kmh 29.82 in1009.8 mb 0.00 in0.0 mm 0.00 in0.0 mm 0.25 in6.4 mm
09:37 PM 57.7°F14.3°C 54.4°F12.4°C 89% 8.0 mph S12.9 kmh S 18.0 mph29.0 kmh 29.82 in1009.8 mb 0.00 in0.0 mm 0.00 in0.0 mm 0.25 in6.4 mm
09:42 PM 57.7°F14.3°C 54.4°F12.4°C 89% 7.0 mph SSW11.3 kmh SSW 18.0 mph29.0 kmh 29.82 in1009.8 mb 0.00 in0.0 mm 0.00 in0.0 mm 0.25 in6.4 mm
09:47 PM 57.7°F14.3°C 54.4°F12.4°C 89% 5.0 mph S8.0 kmh S 18.0 mph29.0 kmh 29.82 in1009.8 mb 0.00 in0.0 mm 0.00 in0.0 mm 0.25 in6.4 mm
09:52 PM 57.8°F14.3°C 54.5°F12.5°C 89% 10.0 mph S16.1 kmh S 18.0 mph29.0 kmh 29.82 in1009.8 mb 0.00 in0.0 mm 0.00 in0.0 mm 0.25 in6.4 mm
09:57 PM 57.8°F14.3°C 54.5°F12.5°C 89% 14.0 mph S22.5 kmh S 15.0 mph24.1 kmh 29.81 in1009.5 mb 0.00 in0.0 mm 0.00 in0.0 mm 0.25 in6.4 mm
10:02 PM 57.8°F14.3°C 54.5°F12.5°C 89% 4.0 mph S6.4 kmh S 16.0 mph25.7 kmh 29.81 in1009.5 mb 0.00 in0.0 mm 0.00 in0.0 mm 0.25 in6.4 mm
10:07 PM 57.8°F14.3°C 54.5°F12.5°C 89% 7.0 mph S11.3 kmh S 18.0 mph29.0 kmh 29.81 in1009.5 mb 0.00 in0.0 mm 0.00 in0.0 mm 0.25 in6.4 mm
10:12 PM 57.8°F14.3°C 54.5°F12.5°C 89% 7.0 mph S11.3 kmh S 18.0 mph29.0 kmh 29.81 in1009.5 mb 0.00 in0.0 mm 0.00 in0.0 mm 0.25 in6.4 mm
10:17 PM 57.8°F14.3°C 54.5°F12.5°C 89% 3.0 mph ESE4.8 kmh ESE 18.0 mph29.0 kmh 29.80 in1009.1 mb 0.00 in0.0 mm 0.00 in0.0 mm 0.25 in6.4 mm
10:22 PM 57.7°F14.3°C 54.4°F12.4°C 89% 1.0 mph SE1.6 kmh SE 18.0 mph29.0 kmh 29.80 in1009.1 mb 0.00 in0.0 mm 0.00 in0.0 mm 0.25 in6.4 mm
10:27 PM 57.6°F14.2°C 54.3°F12.4°C 89% 7.0 mph S11.3 kmh S 17.0 mph27.4 kmh 29.80 in1009.1 mb 0.00 in0.0 mm 0.00 in0.0 mm 0.25 in6.4 mm
10:32 PM 57.5°F14.2°C 54.2°F12.3°C 89% 9.0 mph S14.5 kmh S 17.0 mph27.4 kmh 29.80 in1009.1 mb 0.00 in0.0 mm 0.00 in0.0 mm 0.25 in6.4 mm
10:37 PM 57.4°F14.1°C 54.1°F12.3°C 89% Calm Calm 12.0 mph19.3 kmh 29.79 in1008.8 mb 0.00 in0.0 mm 0.00 in0.0 mm 0.25 in6.4 mm
10:42 PM 57.4°F14.1°C 54.1°F12.3°C 89% 1.0 mph S1.6 kmh S 12.0 mph19.3 kmh 29.79 in1008.8 mb 0.00 in0.0 mm 0.00 in0.0 mm 0.25 in6.4 mm
10:47 PM 57.3°F14.1°C 54.1°F12.3°C 89% 7.0 mph S11.3 kmh S 12.0 mph19.3 kmh 29.79 in1008.8 mb 0.00 in0.0 mm 0.00 in0.0 mm 0.25 in6.4 mm
10:52 PM 57.3°F14.1°C 54.1°F12.3°C 89% 4.0 mph S6.4 kmh S 14.0 mph22.5 kmh 29.79 in1008.8 mb 0.00 in0.0 mm 0.00 in0.0 mm 0.25 in6.4 mm
10:57 PM 57.2°F14.0°C 54.0°F12.2°C 89% 2.0 mph SSW3.2 kmh SSW 8.0 mph12.9 kmh 29.79 in1008.8 mb 0.00 in0.0 mm 0.00 in0.0 mm 0.25 in6.4 mm
11:02 PM 57.3°F14.1°C 54.1°F12.3°C 89% 3.0 mph S4.8 kmh S 9.0 mph14.5 kmh 29.79 in1008.8 mb 0.00 in0.0 mm 0.00 in0.0 mm 0.25 in6.4 mm
11:07 PM 57.3°F14.1°C 54.1°F12.3°C 89% Calm Calm 11.0 mph17.7 kmh 29.79 in1008.8 mb 0.00 in0.0 mm 0.00 in0.0 mm 0.25 in6.4 mm
11:12 PM 57.3°F14.1°C 54.1°F12.3°C 89% 6.0 mph S9.7 kmh S 11.0 mph17.7 kmh 29.78 in1008.5 mb 0.00 in0.0 mm 0.00 in0.0 mm 0.25 in6.4 mm
11:17 PM 57.3°F14.1°C 54.1°F12.3°C 89% Calm Calm 14.0 mph22.5 kmh 29.78 in1008.5 mb 0.00 in0.0 mm 0.00 in0.0 mm 0.25 in6.4 mm
11:22 PM 57.2°F14.0°C 54.0°F12.2°C 89% 3.0 mph S4.8 kmh S 14.0 mph22.5 kmh 29.78 in1008.5 mb 0.00 in0.0 mm 0.00 in0.0 mm 0.25 in6.4 mm
11:27 PM 57.2°F14.0°C 54.0°F12.2°C 89% 4.0 mph S6.4 kmh S 9.0 mph14.5 kmh 29.78 in1008.5 mb 0.00 in0.0 mm 0.00 in0.0 mm 0.25 in6.4 mm
11:32 PM 57.2°F14.0°C 54.0°F12.2°C 89% 1.0 mph S1.6 kmh S 9.0 mph14.5 kmh 29.78 in1008.5 mb 0.00 in0.0 mm 0.00 in0.0 mm 0.25 in6.4 mm
11:37 PM 57.3°F14.1°C 54.1°F12.3°C 89% Calm Calm 12.0 mph19.3 kmh 29.78 in1008.5 mb 0.00 in0.0 mm 0.00 in0.0 mm 0.25 in6.4 mm
11:42 PM 57.4°F14.1°C 54.1°F12.3°C 89% 8.0 mph S12.9 kmh S 13.0 mph20.9 kmh 29.78 in1008.5 mb 0.00 in0.0 mm 0.00 in0.0 mm 0.25 in6.4 mm
11:47 PM 57.4°F14.1°C 54.1°F12.3°C 89% Calm Calm 13.0 mph20.9 kmh 29.77 in1008.1 mb 0.00 in0.0 mm 0.00 in0.0 mm 0.25 in6.4 mm
11:52 PM 57.3°F14.1°C 54.1°F12.3°C 89% Calm Calm 13.0 mph20.9 kmh 29.77 in1008.1 mb 0.00 in0.0 mm 0.00 in0.0 mm 0.25 in6.4 mm
11:57 PM 57.2°F14.0°C 54.0°F12.2°C 89% Calm Calm 13.0 mph20.9 kmh 29.76 in1007.8 mb 0.00 in0.0 mm 0.00 in0.0 mm 0.25 in6.4 mm